Time;durP1;ratioP1;P1;durP2;ratioP2;P2;SDS_P1;SDS_P2;PMS_P1;PMS_P2;Temp;Humidity;BMP_temperature;BMP_pressure;BME280_temperature;BME280_humidity;BME280_pressure;Samples;Min_cycle;Max_cycle;Signal;HPM_P1;HPM_P2
2024/04/23 00:00:06;;;;;;;1.27;1.17;;;;;;;11.13;72.35;93441.03;569064;26;909;-74
2024/04/23 00:00:21;;;;;;;1.20;1.10;;;;;;;11.14;71.76;93453.56;568957;26;1005;-74
2024/04/23 00:00:37;;;;;;;1.00;1.00;;;;;;;11.15;71.55;93446.75;568891;26;790;-74
2024/04/23 00:00:52;;;;;;;1.13;1.10;;;;;;;11.15;71.80;93441.22;569138;26;798;-74
2024/04/23 00:01:08;;;;;;;2.10;1.37;;;;;;;11.16;71.61;93448.22;568963;26;799;-74
2024/04/23 00:01:24;;;;;;;1.95;1.25;;;;;;;11.11;71.96;93446.38;568984;26;910;-74
2024/04/23 00:01:39;;;;;;;1.30;1.20;;;;;;;11.10;72.06;93444.16;569109;26;794;-74
2024/04/23 00:01:55;;;;;;;1.40;1.30;;;;;;;11.10;72.80;93447.69;569088;26;838;-74
2024/04/23 00:02:11;;;;;;;1.90;1.30;;;;;;;11.11;72.26;93440.84;569038;26;878;-74
2024/04/23 00:02:26;;;;;;;1.90;1.20;;;;;;;11.11;72.15;93440.13;568891;26;861;-73
2024/04/23 00:02:42;;;;;;;1.33;1.20;;;;;;;11.13;72.03;93448.59;569070;26;901;-73
2024/04/23 00:02:57;;;;;;;1.25;1.15;;;;;;;11.13;72.09;93435.50;568917;26;801;-74
2024/04/23 00:03:13;;;;;;;1.00;1.00;;;;;;;11.15;71.99;93438.44;569078;26;821;-74
2024/04/23 00:03:28;;;;;;;1.15;1.05;;;;;;;11.12;71.84;93447.88;569063;26;1031;-73
2024/04/23 00:03:43;;;;;;;0.90;0.90;;;;;;;11.14;72.19;93439.00;565034;26;798;-74
2024/04/23 00:03:59;;;;;;;0.93;0.93;;;;;;;11.14;71.76;93433.47;565138;26;842;-74
2024/04/23 00:04:14;;;;;;;1.63;1.25;;;;;;;11.16;72.27;93439.19;565090;26;861;-73
2024/04/23 00:04:30;;;;;;;2.40;1.50;;;;;;;11.12;72.01;93441.59;564951;26;837;-73
2024/04/23 00:04:45;;;;;;;1.70;1.42;;;;;;;11.13;72.21;93434.78;565054;26;1146;-73
2024/04/23 00:05:01;;;;;;;1.40;1.30;;;;;;;11.08;72.39;93446.75;565022;26;779;-73
2024/04/23 00:05:16;;;;;;;1.45;1.35;;;;;;;11.09;72.84;93445.44;564888;26;917;-72
2024/04/23 00:05:32;;;;;;;1.47;1.37;;;;;;;11.07;72.78;93439.75;565534;26;831;-73
2024/04/23 00:05:47;;;;;;;1.43;1.33;;;;;;;11.03;73.09;93439.38;568962;26;1038;-73
2024/04/23 00:06:02;;;;;;;1.77;1.38;;;;;;;10.98;73.39;93443.06;569097;26;873;-73
2024/04/23 00:06:18;;;;;;;1.40;1.20;;;;;;;10.97;73.21;93441.59;568993;26;866;-73
2024/04/23 00:06:33;;;;;;;1.20;1.10;;;;;;;10.94;73.49;93443.41;569056;26;916;-73
2024/04/23 00:07:00;;;;;;;1.30;1.20;;;;;;;10.96;73.43;93442.88;569018;26;896;-73
2024/04/23 00:07:15;;;;;;;1.48;1.20;;;;;;;10.97;73.58;93441.59;568999;26;940;-73
2024/04/23 00:07:31;;;;;;;1.20;1.10;;;;;;;10.95;73.95;93435.88;568978;26;941;-73
2024/04/23 00:07:47;;;;;;;1.30;1.10;;;;;;;10.95;73.82;93439.38;569005;26;865;-73
2024/04/23 00:08:02;;;;;;;1.60;1.10;;;;;;;10.94;74.02;93435.13;568915;26;841;-73
2024/04/23 00:08:17;;;;;;;1.20;1.10;;;;;;;10.93;74.28;93430.91;568930;26;995;-74
2024/04/23 00:08:33;;;;;;;1.17;1.17;;;;;;;10.94;74.03;93432.38;569083;26;809;-74
2024/04/23 00:08:48;;;;;;;1.30;1.20;;;;;;;10.95;74.07;93441.41;568977;26;833;-73
2024/04/23 00:09:04;;;;;;;1.40;1.30;;;;;;;10.95;74.14;93435.88;569178;26;782;-73
2024/04/23 00:09:20;;;;;;;1.30;1.20;;;;;;;10.94;74.51;93434.38;568886;26;845;-73
2024/04/23 00:09:35;;;;;;;1.17;1.07;;;;;;;10.91;74.58;93436.25;568998;26;829;-72
2024/04/23 00:09:51;;;;;;;1.30;1.20;;;;;;;10.91;74.92;93435.50;568981;26;838;-72
2024/04/23 00:10:06;;;;;;;2.50;1.30;;;;;;;10.90;74.80;93440.28;568932;26;782;-72
2024/04/23 00:10:22;;;;;;;2.00;1.10;;;;;;;10.89;75.28;93435.31;569046;26;944;-73
2024/04/23 00:10:37;;;;;;;1.30;1.20;;;;;;;10.86;76.04;93433.66;569001;26;778;-73
2024/04/23 00:10:52;;;;;;;2.15;1.40;;;;;;;10.83;76.75;93429.25;569032;26;889;-73
2024/04/23 00:11:08;;;;;;;2.03;1.27;;;;;;;10.81;76.82;93437.31;568998;26;968;-73
2024/04/23 00:11:25;;;;;;;1.25;1.15;;;;;;;10.81;76.68;93434.56;569136;26;925;-73
2024/04/23 00:11:40;;;;;;;1.48;1.38;;;;;;;10.79;76.38;93437.88;568999;26;843;-73
2024/04/23 00:11:56;;;;;;;1.33;1.23;;;;;;;10.77;76.45;93432.19;569087;26;778;-73
2024/04/23 00:12:11;;;;;;;1.00;1.00;;;;;;;10.76;76.42;93432.72;568919;26;937;-73
2024/04/23 00:12:27;;;;;;;1.40;1.30;;;;;;;10.75;76.96;93428.47;568961;26;818;-72
2024/04/23 00:12:42;;;;;;;1.40;1.30;;;;;;;10.70;77.73;93424.59;569064;26;897;-73
2024/04/23 00:12:58;;;;;;;1.45;1.35;;;;;;;10.68;77.69;93427.94;568961;26;830;-73
2024/04/23 00:13:13;;;;;;;1.90;1.50;;;;;;;10.64;77.80;93429.56;568982;26;806;-74
2024/04/23 00:13:29;;;;;;;1.75;1.50;;;;;;;10.59;78.42;93422.94;568986;26;845;-73
2024/04/23 00:13:44;;;;;;;1.47;1.37;;;;;;;10.57;78.57;93422.75;568980;26;968;-73
2024/04/23 00:13:59;;;;;;;1.63;1.40;;;;;;;10.53;79.05;93425.13;569082;26;857;-73
2024/04/23 00:14:15;;;;;;;1.75;1.38;;;;;;;10.53;79.10;93427.91;568923;26;979;-72
2024/04/23 00:14:30;;;;;;;1.40;1.30;;;;;;;10.53;78.87;93429.91;568997;26;914;-72
2024/04/23 00:14:46;;;;;;;1.50;1.40;;;;;;;10.51;79.57;93424.94;568999;26;865;-73
2024/04/23 00:15:01;;;;;;;1.50;1.40;;;;;;;10.47;79.39;93427.34;568908;26;838;-72
2024/04/23 00:15:17;;;;;;;1.50;1.40;;;;;;;10.42;79.46;93428.25;568962;26;917;-72
2024/04/23 00:15:32;;;;;;;1.57;1.47;;;;;;;10.42;79.92;93427.50;569116;26;802;-73
2024/04/23 00:15:48;;;;;;;1.55;1.45;;;;;;;10.41;80.07;93428.78;568922;26;911;-72
2024/04/23 00:16:03;;;;;;;1.40;1.30;;;;;;;10.36;80.91;93435.22;569030;26;770;-73
2024/04/23 00:16:19;;;;;;;1.50;1.35;;;;;;;10.33;81.21;93423.25;568801;26;825;-72
2024/04/23 00:16:34;;;;;;;1.60;1.50;;;;;;;10.34;81.07;93423.97;569031;26;874;-72
2024/04/23 00:17:00;;;;;;;1.63;1.50;;;;;;;10.36;81.27;93430.44;568983;26;798;-73
2024/04/23 00:17:15;;;;;;;1.77;1.60;;;;;;;10.36;81.61;93424.91;568885;26;969;-72
2024/04/23 00:17:30;;;;;;;1.97;1.50;;;;;;;10.33;81.62;93423.25;569064;26;762;-72
2024/04/23 00:17:46;;;;;;;1.83;1.38;;;;;;;10.34;81.88;93424.72;568870;26;1002;-72
2024/04/23 00:18:01;;;;;;;2.53;1.40;;;;;;;10.30;81.81;93421.59;568989;26;782;-72
2024/04/23 00:18:17;;;;;;;3.60;1.58;;;;;;;10.30;81.88;93424.34;568945;26;1081;-72
2024/04/23 00:18:32;;;;;;;2.97;1.60;;;;;;;10.32;81.86;93416.25;569131;26;814;-72
2024/04/23 00:18:48;;;;;;;2.10;1.60;;;;;;;10.33;82.10;93419.78;568977;26;837;-72
2024/04/23 00:19:04;;;;;;;1.48;1.38;;;;;;;10.33;81.77;93414.97;569019;26;878;-73
2024/04/23 00:19:19;;;;;;;2.13;1.37;;;;;;;10.34;82.03;93413.69;568848;26;876;-73
2024/04/23 00:19:35;;;;;;;2.15;1.40;;;;;;;10.33;82.36;93412.22;569015;26;920;-73
2024/04/23 00:19:50;;;;;;;1.50;1.40;;;;;;;10.32;82.54;93405.22;568954;26;1983;-73
2024/04/23 00:20:06;;;;;;;1.57;1.47;;;;;;;10.30;82.58;93407.78;569081;26;1034;-73
2024/04/23 00:20:22;;;;;;;1.50;1.40;;;;;;;10.30;82.76;93415.34;569036;26;893;-73
2024/04/23 00:20:37;;;;;;;1.70;1.60;;;;;;;10.24;82.86;93404.47;568905;26;790;-73
2024/04/23 00:20:55;;;;;;;1.77;1.67;;;;;;;10.23;83.54;93410.53;569121;26;944;-73
2024/04/23 00:21:11;;;;;;;1.90;1.70;;;;;;;10.24;83.50;93407.22;564911;26;951;-73
2024/04/23 00:21:26;;;;;;;2.15;1.67;;;;;;;10.25;83.67;93400.41;564978;26;949;-73
2024/04/23 00:21:41;;;;;;;1.80;1.60;;;;;;;10.27;83.67;93408.88;565016;26;807;-73
2024/04/23 00:21:57;;;;;;;2.30;1.65;;;;;;;10.28;83.46;93409.63;564914;26;857;-72
2024/04/23 00:22:13;;;;;;;3.20;1.70;;;;;;;10.28;83.85;93396.56;565002;26;1251;-72
2024/04/23 00:22:28;;;;;;;2.58;1.58;;;;;;;10.30;83.75;93391.25;564925;26;976;-73
2024/04/23 00:22:43;;;;;;;1.53;1.33;;;;;;;10.32;83.97;93405.22;565013;26;787;-73
2024/04/23 00:22:59;;;;;;;1.58;1.48;;;;;;;10.25;84.46;93389.38;565091;26;834;-73
2024/04/23 00:23:15;;;;;;;2.03;1.70;;;;;;;10.20;84.67;93400.59;565000;26;905;-73
2024/04/23 00:23:30;;;;;;;1.80;1.60;;;;;;;10.17;84.95;93399.66;565169;26;823;-73
2024/04/23 00:23:45;;;;;;;2.10;1.80;;;;;;;10.18;85.07;93394.91;565170;26;782;-73
2024/04/23 00:24:01;;;;;;;3.80;2.00;;;;;;;10.17;84.83;93388.63;565181;26;806;-73
2024/04/23 00:24:16;;;;;;;3.38;1.90;;;;;;;10.13;85.53;93399.28;565160;26;798;-72
2024/04/23 00:24:32;;;;;;;2.03;1.80;;;;;;;10.09;85.86;93393.34;565092;26;953;-73
2024/04/23 00:24:47;;;;;;;2.08;1.80;;;;;;;10.07;85.95;93401.44;565038;26;854;-73
2024/04/23 00:25:03;;;;;;;2.00;1.87;;;;;;;10.03;86.01;93395.53;565194;26;885;-73
2024/04/23 00:25:18;;;;;;;2.60;1.80;;;;;;;10.05;86.24;93397.75;565090;26;846;-73
2024/04/23 00:25:34;;;;;;;2.73;1.80;;;;;;;10.03;86.07;93395.53;565331;26;1081;-73
2024/04/23 00:25:49;;;;;;;1.73;1.63;;;;;;;10.00;86.31;93388.38;565166;26;803;-74
2024/04/23 00:26:05;;;;;;;1.70;1.60;;;;;;;10.03;86.08;93394.81;565111;26;782;-73
2024/04/23 00:26:20;;;;;;;3.08;2.15;;;;;;;10.04;86.31;93393.50;565167;26;830;-73
2024/04/23 00:26:38;;;;;;;3.77;2.47;;;;;;;10.07;86.34;93392.44;565297;26;882;-73
2024/04/23 00:26:58;;;;;;;2.85;2.13;;;;;;;10.07;86.27;93390.38;565310;26;909;-72
2024/04/23 00:27:13;;;;;;;2.50;1.50;;;;;;;10.07;86.03;93392.44;565251;26;857;-73
2024/04/23 00:27:29;;;;;;;2.17;1.80;;;;;;;10.09;86.02;93396.09;565042;26;898;-73
2024/04/23 00:27:44;;;;;;;2.17;2.00;;;;;;;10.11;85.86;93392.84;565207;26;830;-73
2024/04/23 00:27:59;;;;;;;2.00;1.90;;;;;;;10.12;85.87;93392.28;565201;26;1133;-73
2024/04/23 00:28:15;;;;;;;2.00;1.80;;;;;;;10.14;85.33;93386.94;565132;26;818;-73
2024/04/23 00:28:30;;;;;;;1.98;1.70;;;;;;;10.14;85.88;93389.72;565203;26;922;-73
2024/04/23 00:28:46;;;;;;;1.70;1.60;;;;;;;10.16;85.72;93392.66;565125;26;838;-73
2024/04/23 00:29:01;;;;;;;1.95;1.70;;;;;;;10.15;85.58;93385.69;565214;26;833;-74
2024/04/23 00:29:17;;;;;;;2.60;1.97;;;;;;;10.11;85.91;93381.81;565187;26;921;-73
2024/04/23 00:29:32;;;;;;;2.13;1.85;;;;;;;10.12;85.81;93386.03;565217;26;878;-74
2024/04/23 00:29:48;;;;;;;1.87;1.73;;;;;;;10.13;85.91;93379.22;565040;26;840;-73
2024/04/23 00:30:04;;;;;;;2.60;1.95;;;;;;;10.14;86.37;93386.94;565217;26;960;-73
2024/04/23 00:30:19;;;;;;;3.08;2.08;;;;;;;10.15;86.35;93382.19;564984;26;1021;-73
2024/04/23 00:30:35;;;;;;;2.63;2.13;;;;;;;10.16;86.13;93383.63;561232;26;1329;-74
2024/04/23 00:30:50;;;;;;;2.30;2.13;;;;;;;10.15;86.17;93385.69;561208;26;894;-73
2024/04/23 00:31:06;;;;;;;2.28;2.17;;;;;;;10.12;85.56;93389.53;561209;26;846;-74
2024/04/23 00:31:22;;;;;;;2.27;2.07;;;;;;;10.12;85.58;93384.00;561271;26;838;-73
2024/04/23 00:31:37;;;;;;;2.08;1.75;;;;;;;10.12;85.49;93384.00;561026;26;998;-73
2024/04/23 00:31:53;;;;;;;1.83;1.70;;;;;;;10.11;85.36;93382.53;561302;26;791;-73
2024/04/23 00:32:08;;;;;;;2.83;1.83;;;;;;;10.11;85.34;93387.31;561230;26;850;-73
2024/04/23 00:32:24;;;;;;;2.47;1.77;;;;;;;10.12;85.25;93383.25;561981;26;950;-73
2024/04/23 00:32:39;;;;;;;2.00;1.80;;;;;;;10.12;85.18;93383.25;565199;26;822;-73
2024/04/23 00:32:55;;;;;;;2.38;2.03;;;;;;;10.12;85.38;93388.78;565070;26;1064;-73
2024/04/23 00:33:10;;;;;;;2.20;2.00;;;;;;;10.13;85.49;93382.75;565052;26;775;-73
2024/04/23 00:33:25;;;;;;;2.03;1.75;;;;;;;10.13;85.87;93385.50;565183;26;878;-73
2024/04/23 00:33:41;;;;;;;2.03;1.70;;;;;;;10.16;85.72;93387.16;565119;26;1097;-73
2024/04/23 00:33:56;;;;;;;1.98;1.67;;;;;;;10.16;85.61;93384.38;565268;26;842;-73
2024/04/23 00:34:12;;;;;;;1.70;1.60;;;;;;;10.18;85.67;93384.56;565105;26;1139;-73
2024/04/23 00:34:27;;;;;;;1.80;1.70;;;;;;;10.18;85.67;93381.81;565055;26;1100;-73
2024/04/23 00:34:43;;;;;;;2.00;1.70;;;;;;;10.18;85.46;93381.81;565233;26;853;-73
2024/04/23 00:34:58;;;;;;;2.07;1.73;;;;;;;10.19;85.39;93388.06;565060;26;1100;-73
2024/04/23 00:35:13;;;;;;;3.40;1.98;;;;;;;10.19;85.44;93386.06;565115;26;1013;-73
2024/04/23 00:35:29;;;;;;;3.67;2.17;;;;;;;10.19;85.32;93377.78;565255;26;815;-73
2024/04/23 00:35:44;;;;;;;2.77;2.00;;;;;;;10.22;85.07;93384.22;565089;26;917;-73
2024/04/23 00:36:00;;;;;;;2.72;2.00;;;;;;;10.23;85.19;93380.16;565166;26;878;-73
2024/04/23 00:36:15;;;;;;;2.07;1.90;;;;;;;10.26;85.08;93381.84;565173;26;925;-73
2024/04/23 00:36:31;;;;;;;1.80;1.70;;;;;;;10.29;85.07;93387.00;565150;26;798;-73
2024/04/23 00:36:56;;;;;;;2.43;1.90;;;;;;;10.31;84.95;93383.72;565208;26;1169;-73
2024/04/23 00:37:12;;;;;;;2.55;2.00;;;;;;;10.34;85.05;93385.34;565077;26;950;-73
2024/04/23 00:37:27;;;;;;;2.63;2.07;;;;;;;10.34;84.86;93383.34;565163;26;787;-73
2024/04/23 00:37:42;;;;;;;2.10;1.90;;;;;;;10.36;84.72;93388.28;565225;26;912;-73
2024/04/23 00:37:58;;;;;;;2.15;1.95;;;;;;;10.36;85.11;93383.53;565181;26;790;-73
2024/04/23 00:38:13;;;;;;;2.30;2.10;;;;;;;10.34;85.21;93379.84;565185;26;941;-73
2024/04/23 00:38:29;;;;;;;2.25;2.05;;;;;;;10.33;85.36;93376.34;564971;26;917;-73
2024/04/23 00:38:44;;;;;;;2.73;2.00;;;;;;;10.33;85.50;93379.09;565163;26;802;-73
2024/04/23 00:39:00;;;;;;;2.72;2.03;;;;;;;10.35;85.47;93373.75;565145;26;840;-73
2024/04/23 00:39:15;;;;;;;2.20;2.00;;;;;;;10.36;85.52;93380.75;565163;26;933;-73
2024/04/23 00:39:30;;;;;;;2.37;1.93;;;;;;;10.35;85.59;93376.50;565195;26;834;-73
2024/04/23 00:39:46;;;;;;;3.00;1.90;;;;;;;10.36;85.44;93382.78;565088;26;1837;-73
2024/04/23 00:40:01;;;;;;;2.23;1.77;;;;;;;10.37;85.31;93376.69;565153;26;937;-74
2024/04/23 00:40:17;;;;;;;2.10;1.90;;;;;;;10.39;85.53;93373.41;565212;26;807;-74
2024/04/23 00:40:32;;;;;;;2.10;1.90;;;;;;;10.40;85.46;93375.63;561280;26;826;-73
2024/04/23 00:40:48;;;;;;;2.20;2.00;;;;;;;10.40;85.76;93374.88;561179;26;965;-74
2024/04/23 00:41:03;;;;;;;2.20;2.00;;;;;;;10.41;85.73;93370.84;561216;26;779;-73
2024/04/23 00:41:19;;;;;;;2.15;1.98;;;;;;;10.40;85.74;93381.13;561065;26;783;-73
2024/04/23 00:41:34;;;;;;;2.00;1.90;;;;;;;10.42;85.72;93373.03;561213;26;948;-73
2024/04/23 00:41:50;;;;;;;2.10;1.93;;;;;;;10.44;86.00;93369.72;561164;26;830;-73
2024/04/23 00:42:05;;;;;;;2.35;2.10;;;;;;;10.46;85.75;93370.66;561197;26;798;-73
2024/04/23 00:42:21;;;;;;;2.37;2.03;;;;;;;10.28;85.63;93346.16;561733;26;913;-73
2024/04/23 00:42:37;;;;;;;2.38;1.95;;;;;;;10.50;85.79;93373.78;564969;26;866;-73
2024/04/23 00:42:52;;;;;;;2.35;2.10;;;;;;;10.51;85.88;93371.75;565206;26;838;-73
2024/04/23 00:43:07;;;;;;;2.77;2.20;;;;;;;10.51;85.40;93375.25;565033;26;1097;-73
2024/04/23 00:43:23;;;;;;;2.47;2.10;;;;;;;10.51;85.71;93375.25;565113;26;817;-73
2024/04/23 00:43:38;;;;;;;2.13;1.93;;;;;;;10.52;85.96;93371.22;565102;26;842;-73
2024/04/23 00:43:54;;;;;;;2.10;1.90;;;;;;;10.52;85.69;93371.22;565168;26;937;-73
2024/04/23 00:44:09;;;;;;;2.30;2.10;;;;;;;10.54;85.86;93374.19;565037;26;972;-73
2024/04/23 00:44:25;;;;;;;2.40;2.20;;;;;;;10.55;85.84;93367.34;565114;26;783;-73
2024/04/23 00:44:40;;;;;;;2.40;2.20;;;;;;;10.55;85.82;93367.34;565133;26;881;-73
2024/04/23 00:44:55;;;;;;;2.50;2.10;;;;;;;10.56;86.01;93366.09;565827;26;1369;-73
2024/04/23 00:45:13;;;;;;;2.10;1.90;;;;;;;10.59;86.09;93364.22;568946;26;1047;-73
2024/04/23 00:45:32;;;;;;;2.30;2.10;;;;;;;10.59;85.92;93366.97;568793;26;929;-74
2024/04/23 00:45:49;;;;;;;2.50;2.30;;;;;;;10.60;86.17;93369.22;564885;26;942;-73
2024/04/23 00:46:05;;;;;;;2.28;2.08;;;;;;;10.62;85.88;93366.63;564956;26;870;-74
2024/04/23 00:46:23;;;;;;;1.98;1.85;;;;;;;10.62;86.02;93363.88;561223;26;1027;-74
2024/04/23 00:46:39;;;;;;;2.20;2.00;;;;;;;10.64;85.76;93366.06;561196;26;1001;-74
2024/04/23 00:46:55;;;;;;;2.50;2.13;;;;;;;10.66;85.74;93366.25;561133;26;854;-74
2024/04/23 00:47:10;;;;;;;2.63;2.22;;;;;;;10.66;85.55;93367.00;561214;26;961;-74
2024/04/23 00:47:26;;;;;;;2.30;2.07;;;;;;;10.67;85.67;93362.22;561197;26;972;-74
2024/04/23 00:47:41;;;;;;;2.47;2.00;;;;;;;10.68;85.64;93363.69;563230;26;838;-74
2024/04/23 00:47:57;;;;;;;2.70;2.07;;;;;;;10.68;85.64;93366.44;564884;26;837;-74
2024/04/23 00:48:14;;;;;;;2.40;1.95;;;;;;;10.67;85.59;93370.50;566532;26;889;-73
2024/04/23 00:48:31;;;;;;;2.47;2.10;;;;;;;10.66;85.77;93363.50;568860;26;834;-74
2024/04/23 00:48:46;;;;;;;2.47;2.28;;;;;;;10.66;85.77;93363.50;569000;26;905;-74
2024/04/23 00:49:02;;;;;;;2.23;2.10;;;;;;;10.68;85.70;93365.72;568910;26;941;-74
2024/04/23 00:49:18;;;;;;;3.03;2.17;;;;;;;10.66;85.63;93366.25;564908;26;841;-74
2024/04/23 00:49:33;;;;;;;4.55;2.30;;;;;;;10.68;85.63;93369.19;564741;26;1067;-74
2024/04/23 00:49:49;;;;;;;3.70;2.30;;;;;;;10.68;85.67;93369.19;561169;26;807;-74
2024/04/23 00:50:05;;;;;;;4.03;2.20;;;;;;;10.69;85.68;93362.41;557487;26;837;-74
2024/04/23 00:50:21;;;;;;;3.28;2.15;;;;;;;10.69;85.71;93376.22;557463;26;900;-74
2024/04/23 00:50:37;;;;;;;2.25;2.05;;;;;;;10.68;85.81;93361.66;557451;26;862;-74
2024/04/23 00:50:53;;;;;;;2.28;2.08;;;;;;;10.70;85.81;93363.84;557474;26;988;-74
2024/04/23 00:51:08;;;;;;;2.67;1.80;;;;;;;10.71;85.49;93364.59;558644;26;910;-74
2024/04/23 00:51:24;;;;;;;2.93;1.93;;;;;;;10.72;85.60;93369.56;561238;26;782;-73
2024/04/23 00:51:40;;;;;;;3.13;2.35;;;;;;;10.64;85.65;93357.78;562304;26;857;-74
2024/04/23 00:51:56;;;;;;;3.13;2.22;;;;;;;10.75;85.65;93371.25;561271;26;873;-73
2024/04/23 00:52:13;;;;;;;2.08;1.83;;;;;;;10.77;85.35;93367.91;561454;26;881;-74
2024/04/23 00:52:28;;;;;;;2.08;1.88;;;;;;;10.77;85.38;93367.91;561121;26;866;-74
2024/04/23 00:52:44;;;;;;;2.23;2.00;;;;;;;10.74;85.36;93363.50;561148;26;830;-74
2024/04/23 00:52:59;;;;;;;2.20;2.00;;;;;;;10.76;85.38;93364.44;561223;26;865;-74
2024/04/23 00:53:14;;;;;;;2.20;2.00;;;;;;;10.59;85.30;93337.34;561167;26;873;-74
2024/04/23 00:53:30;;;;;;;2.47;2.27;;;;;;;10.78;84.86;93369.41;561171;26;803;-74
2024/04/23 00:53:45;;;;;;;2.30;2.10;;;;;;;10.79;85.22;93365.34;561232;26;810;-74
2024/04/23 00:54:01;;;;;;;2.30;2.10;;;;;;;10.79;85.30;93359.81;561254;26;901;-73
2024/04/23 00:54:18;;;;;;;2.63;2.22;;;;;;;10.80;85.03;93364.81;561144;26;989;-74
2024/04/23 00:54:33;;;;;;;2.33;1.92;;;;;;;10.81;85.31;93362.75;561531;26;981;-74
2024/04/23 00:54:49;;;;;;;2.07;1.70;;;;;;;10.81;85.44;93360.00;561450;26;798;-73
2024/04/23 00:55:05;;;;;;;2.60;1.65;;;;;;;10.82;85.35;93364.25;561487;26;850;-74
2024/04/23 00:55:21;;;;;;;3.15;1.98;;;;;;;10.82;84.97;93361.47;561393;26;822;-73
2024/04/23 00:55:38;;;;;;;2.30;2.10;;;;;;;10.78;85.13;93359.09;561409;26;1116;-74
2024/04/23 00:55:54;;;;;;;2.25;2.10;;;;;;;10.83;85.21;93363.69;561516;26;924;-74
2024/04/23 00:56:10;;;;;;;2.95;2.33;;;;;;;10.84;85.32;93367.19;561447;26;1036;-73
2024/04/23 00:56:26;;;;;;;4.05;2.30;;;;;;;10.84;84.92;93365.16;561308;26;890;-73
2024/04/23 00:56:42;;;;;;;2.90;2.25;;;;;;;10.84;84.77;93367.94;561381;26;869;-74
2024/04/23 00:56:58;;;;;;;2.60;2.40;;;;;;;10.84;85.02;93367.94;561480;26;842;-74
2024/04/23 00:57:13;;;;;;;2.45;2.25;;;;;;;10.82;84.57;93367.00;561271;26;842;-74
2024/04/23 00:57:29;;;;;;;3.00;2.10;;;;;;;10.81;84.45;93365.50;561201;26;978;-74
2024/04/23 00:57:44;;;;;;;2.57;1.90;;;;;;;10.79;84.03;93368.84;561126;26;1642;-74
2024/04/23 00:58:00;;;;;;;2.17;1.98;;;;;;;10.78;84.12;93364.63;557425;26;818;-74
2024/04/23 00:58:15;;;;;;;2.70;2.13;;;;;;;10.79;83.89;93365.34;557505;26;830;-74
2024/04/23 00:58:31;;;;;;;2.30;1.83;;;;;;;10.80;84.16;93364.06;557446;26;878;-74
2024/04/23 00:58:47;;;;;;;1.98;1.60;;;;;;;10.64;83.83;93338.47;557556;26;834;-74
2024/04/23 00:59:03;;;;;;;3.72;2.15;;;;;;;10.81;83.57;93362.75;558498;26;810;-74
2024/04/23 00:59:19;;;;;;;4.82;2.35;;;;;;;10.76;84.11;93364.44;561033;26;842;-74
2024/04/23 00:59:34;;;;;;;2.47;1.80;;;;;;;10.75;83.50;93367.72;557568;26;802;-74
2024/04/23 00:59:50;;;;;;;2.20;1.80;;;;;;;10.71;83.54;93359.09;554823;26;1877;-74
2024/04/23 01:00:06;;;;;;;2.10;1.80;;;;;;;10.68;83.01;93360.91;557545;26;830;-74
2024/04/23 01:00:21;;;;;;;1.77;1.65;;;;;;;10.68;83.40;93365.72;557390;26;920;-74
2024/04/23 01:00:37;;;;;;;1.90;1.70;;;;;;;10.68;83.45;93361.66;557405;26;842;-74
2024/04/23 01:00:52;;;;;;;2.17;1.90;;;;;;;10.70;83.43;93363.84;553951;26;894;-74
2024/04/23 01:01:08;;;;;;;2.40;2.00;;;;;;;10.69;83.60;93362.41;553795;26;922;-74
2024/04/23 01:01:24;;;;;;;2.55;2.10;;;;;;;10.71;83.57;93365.34;554634;26;847;-74
2024/04/23 01:01:39;;;;;;;2.33;2.07;;;;;;;10.72;83.41;93364.03;558272;26;791;-74
2024/04/23 01:01:55;;;;;;;2.47;2.17;;;;;;;10.75;83.75;93364.97;561218;26;861;-74
2024/04/23 01:02:11;;;;;;;2.95;2.42;;;;;;;10.73;83.74;93360.00;557369;26;842;-74
2024/04/23 01:02:26;;;;;;;3.20;2.40;;;;;;;10.77;83.53;93367.91;553788;26;834;-74
2024/04/23 01:02:42;;;;;;;3.22;2.38;;;;;;;10.77;83.61;93357.59;554701;26;800;-74
2024/04/23 01:02:58;;;;;;;3.25;2.60;;;;;;;10.77;83.51;93363.13;557453;26;968;-74
2024/04/23 01:03:13;;;;;;;3.77;2.73;;;;;;;10.78;83.64;93361.13;557519;26;933;-74
2024/04/23 01:03:29;;;;;;;3.45;2.90;;;;;;;10.79;83.75;93362.56;557365;26;921;-74
2024/04/23 01:03:44;;;;;;;3.27;2.97;;;;;;;10.80;83.80;93366.81;557417;26;791;-74
2024/04/23 01:04:01;;;;;;;3.53;2.70;;;;;;;10.80;83.62;93362.03;558198;26;857;-74
2024/04/23 01:04:16;;;;;;;3.78;2.72;;;;;;;10.81;83.90;93362.75;561204;26;909;-74
2024/04/23 01:04:32;;;;;;;3.03;2.72;;;;;;;10.83;83.96;93366.44;561442;26;933;-74
2024/04/23 01:04:48;;;;;;;2.97;2.57;;;;;;;10.83;83.49;93357.44;561257;26;1164;-74
2024/04/23 01:05:03;;;;;;;3.65;2.53;;;;;;;10.84;83.73;93361.66;561427;26;826;-74
2024/04/23 01:05:19;;;;;;;3.03;2.20;;;;;;;10.86;83.71;93356.31;561068;26;833;-74
2024/04/23 01:05:34;;;;;;;1.93;1.73;;;;;;;10.84;83.48;93356.13;561285;26;786;-74
2024/04/23 01:05:50;;;;;;;2.30;1.65;;;;;;;10.83;83.45;93362.97;561145;26;845;-74
2024/04/23 01:06:06;;;;;;;2.13;1.53;;;;;;;10.81;83.04;93360.75;561236;26;861;-74
2024/04/23 01:06:21;;;;;;;1.38;1.25;;;;;;;10.81;82.74;93357.97;557412;26;866;-74
2024/04/23 01:06:37;;;;;;;1.40;1.20;;;;;;;10.82;82.36;93361.47;557740;26;1061;-74
2024/04/23 01:06:52;;;;;;;2.00;1.45;;;;;;;10.81;82.23;93362.75;557774;26;925;-74
2024/04/23 01:07:07;;;;;;;2.23;1.53;;;;;;;10.81;82.13;93355.22;558828;26;791;-74
2024/04/23 01:07:23;;;;;;;1.70;1.40;;;;;;;10.82;81.99;93358.72;561970;26;833;-74
2024/04/23 01:07:38;;;;;;;1.60;1.30;;;;;;;10.81;81.82;93362.75;561863;26;893;-74
2024/04/23 01:07:54;;;;;;;1.40;1.27;;;;;;;10.79;81.46;93360.56;562002;26;802;-74
2024/04/23 01:08:09;;;;;;;1.40;1.30;;;;;;;10.79;81.42;93365.34;562009;26;799;-74
2024/04/23 01:08:25;;;;;;;1.40;1.23;;;;;;;10.73;81.56;93357.25;562175;26;853;-73
2024/04/23 01:08:40;;;;;;;2.17;1.40;;;;;;;10.70;81.57;93355.56;562119;26;940;-73
2024/04/23 01:08:56;;;;;;;1.73;1.30;;;;;;;10.68;81.87;93357.44;562129;26;782;-73
2024/04/23 01:09:11;;;;;;;1.30;1.20;;;;;;;10.67;81.49;93356.69;562305;26;841;-73
2024/04/23 01:09:29;;;;;;;1.43;1.30;;;;;;;10.68;81.37;93354.69;562133;26;794;-73
2024/04/23 01:09:44;;;;;;;1.42;1.33;;;;;;;10.64;81.18;93353.00;562270;26;892;-74
2024/04/23 01:10:00;;;;;;;1.73;1.33;;;;;;;10.66;81.21;93357.97;562172;26;1036;-74
2024/04/23 01:10:15;;;;;;;1.85;1.33;;;;;;;10.62;81.36;93350.06;562149;26;857;-72
2024/04/23 01:10:31;;;;;;;1.80;1.30;;;;;;;10.61;81.31;93351.34;562077;26;1139;-74
2024/04/23 01:10:46;;;;;;;1.92;1.30;;;;;;;10.34;81.50;93322.63;562088;26;890;-74
2024/04/23 01:11:02;;;;;;;1.63;1.30;;;;;;;10.48;81.56;93342.50;562212;26;774;-74
2024/04/23 01:11:17;;;;;;;2.10;1.40;;;;;;;10.46;82.06;93345.81;562056;26;813;-74
2024/04/23 01:11:34;;;;;;;2.30;1.50;;;;;;;10.47;82.02;93346.56;562201;26;794;-74
2024/04/23 01:11:49;;;;;;;2.35;1.63;;;;;;;10.47;82.26;93349.31;561790;26;863;-73
2024/04/23 01:12:05;;;;;;;2.03;1.60;;;;;;;10.47;82.49;93341.03;562038;26;842;-74
2024/04/23 01:12:21;;;;;;;1.60;1.50;;;;;;;10.47;82.55;93339.00;561977;26;921;-74
2024/04/23 01:12:36;;;;;;;1.50;1.40;;;;;;;10.50;82.69;93343.41;561888;26;834;-74
2024/04/23 01:12:51;;;;;;;1.43;1.33;;;;;;;10.51;82.45;93336.63;561996;26;807;-73
2024/04/23 01:13:08;;;;;;;1.53;1.43;;;;;;;10.53;82.51;93339.56;558083;26;941;-74
2024/04/23 01:13:23;;;;;;;1.88;1.52;;;;;;;10.55;82.32;93342.50;558184;26;945;-74
2024/04/23 01:13:38;;;;;;;2.30;1.40;;;;;;;10.57;82.37;93337.16;559241;26;831;-74
2024/04/23 01:13:54;;;;;;;2.20;1.33;;;;;;;10.60;82.56;93340.84;561956;26;925;-74
2024/04/23 01:14:09;;;;;;;1.95;1.38;;;;;;;10.61;82.52;93342.34;561874;26;969;-74
2024/04/23 01:14:25;;;;;;;1.50;1.40;;;;;;;10.62;82.47;93339.03;561907;26;901;-74
2024/04/23 01:14:43;;;;;;;4.00;1.60;;;;;;;10.63;82.24;93337.72;561932;26;945;-74
2024/04/23 01:14:58;;;;;;;3.63;1.55;;;;;;;10.65;81.89;93345.47;559502;26;862;-74
2024/04/23 01:15:14;;;;;;;1.50;1.40;;;;;;;10.51;81.85;93325.56;561967;26;984;-74
2024/04/23 01:15:30;;;;;;;1.60;1.50;;;;;;;10.64;81.96;93341.22;558249;26;933;-73
2024/04/23 01:15:46;;;;;;;1.60;1.48;;;;;;;10.65;81.71;93345.47;558216;26;827;-73
2024/04/23 01:16:02;;;;;;;1.27;1.17;;;;;;;10.61;81.51;93345.81;554564;26;902;-74
2024/04/23 01:16:19;;;;;;;1.42;1.10;;;;;;;10.61;81.33;93339.59;550889;26;891;-73
2024/04/23 01:16:38;;;;;;;1.25;1.13;;;;;;;10.62;81.59;93341.78;551149;26;889;-74
2024/04/23 01:16:53;;;;;;;1.52;1.42;;;;;;;10.64;81.44;93338.47;551125;26;898;-74